Latest Weather Observations for Warburto Point

IDS60801

Issued at 11:35 pm CDT Sunday 23 November 2014 (issued every 30 minutes, with the page automatically refreshed every 10 minutes)

About weather observations | Map of weather stations | Latest weather observations for SA | Other Formats
Station Details ID: 022053 Name: WARBURTO POINT Lat: -34.00 Lon: 137.53 Height: 1.0 m
Data from the previous 72 hours. | See also: Recent months for locations in South Australia
Date/Time
CDT
Temp
°C
App
Temp
°C
Dew
Point
Rel
Hum
%
Delta-T
°C
Wind Press
QNH
hPa
Press
MSL
hPa
Rain
since 9 am
mm
Dir
 
Spd
km/h
Gust
km/h
Spd
kts
Gust
kts
23/11:30pm - - - - - W 6 7 3 4 - - -
23/10:30pm - - - - - SSE 20 26 11 14 - - -
23/10:00pm - - - - - S 19 22 10 12 - - -
23/09:30pm - - - - - S 22 28 12 15 - - -
23/09:00pm - - - - - S 20 28 11 15 - - -
23/08:30pm - - - - - SSE 22 30 12 16 - - -
23/08:00pm - - - - - SSE 24 30 13 16 - - -
23/07:30pm - - - - - SE 24 28 13 15 - - -
23/07:00pm - - - - - SE 26 33 14 18 - - -
23/06:30pm - - - - - SE 30 35 16 19 - - -
23/06:00pm - - - - - SE 26 37 14 20 - - -
23/05:30pm - - - - - SSW 15 20 8 11 - - -
23/05:00pm - - - - - SSW 17 26 9 14 - - -
23/04:30pm - - - - - SSW 22 30 12 16 - - -
23/04:00pm - - - - - SSW 20 28 11 15 - - -
23/03:30pm - - - - - SSW 20 26 11 14 - - -
23/03:00pm - - - - - S 17 20 9 11 - - -
23/02:30pm - - - - - SSW 20 26 11 14 - - -
23/02:00pm - - - - - SSW 22 28 12 15 - - -
23/01:30pm - - - - - SSW 20 26 11 14 - - -
23/01:00pm - - - - - W 22 32 12 17 - - -
23/12:30pm - - - - - SSW 19 22 10 12 - - -
23/12:00pm - - - - - W 17 24 9 13 - - -
23/11:30am - - - - - W 15 19 8 10 - - -
23/11:00am - - - - - W 17 19 9 10 - - -
23/10:30am - - - - - WNW 15 19 8 10 - - -
23/10:00am - - - - - W 13 15 7 8 - - -
23/09:30am - - - - - SSW 11 13 6 7 - - -
23/09:00am - - - - - E 11 15 6 8 - - -
23/08:30am - - - - - ESE 13 19 7 10 - - -
23/08:00am - - - - - E 19 26 10 14 - - -
23/07:30am - - - - - ESE 11 15 6 8 - - -
23/07:00am - - - - - E 11 13 6 7 - - -
23/06:30am - - - - - ESE 11 15 6 8 - - -
23/06:00am - - - - - E 15 17 8 9 - - -
23/05:30am - - - - - ESE 9 11 5 6 - - -
23/05:00am - - - - - ESE 11 13 6 7 - - -
23/04:30am - - - - - E 13 13 7 7 - - -
23/04:00am - - - - - SSE 13 17 7 9 - - -
23/03:30am - - - - - SSE 13 17 7 9 - - -
23/03:00am - - - - - SSE 13 17 7 9 - - -
23/02:30am - - - - - S 15 19 8 10 - - -
23/02:00am - - - - - SSE 15 17 8 9 - - -
23/01:30am - - - - - SSE 17 22 9 12 - - -
23/01:00am - - - - - SSE 22 30 12 16 - - -
23/12:30am - - - - - S 26 32 14 17 - - -
23/12:00am - - - - - SSW 32 37 17 20 - - -
 
Date/Time
CDT
Temp
°C
App
Temp
°C
Dew
Point
Rel
Hum
%
Delta-T
°C
Wind Press
QNH
hPa
Press
MSL
hPa
Rain
since 9 am
mm
Dir
 
Spd
km/h
Gust
km/h
Spd
kts
Gust
kts
22/11:30pm - - - - - SSW 30 33 16 18 - - -
22/11:00pm - - - - - SSW 32 39 17 21 - - -
22/10:30pm - - - - - SSW 35 41 19 22 - - -
22/10:00pm - - - - - SSW 39 48 21 26 - - -
22/09:30pm - - - - - SSW 43 52 23 28 - - -
22/09:00pm - - - - - SSW 41 54 22 29 - - -
22/08:30pm - - - - - SSW 43 52 23 28 - - -
22/08:00pm - - - - - SSW 39 50 21 27 - - -
22/07:30pm - - - - - SSW 43 54 23 29 - - -
22/07:00pm - - - - - S 37 46 20 25 - - -
22/06:30pm - - - - - S 35 44 19 24 - - -
22/06:00pm - - - - - SSW 35 50 19 27 - - -
22/05:30pm - - - - - SSW 35 43 19 23 - - -
22/05:00pm - - - - - SSW 30 35 16 19 - - -
22/04:30pm - - - - - SSW 32 41 17 22 - - -
22/04:00pm - - - - - SSW 32 43 17 23 - - -
22/03:30pm - - - - - SSW 30 37 16 20 - - -
22/03:00pm - - - - - SSW 24 32 13 17 - - -
22/02:30pm - - - - - SSW 33 43 18 23 - - -
22/02:00pm - - - - - SSW 37 44 20 24 - - -
22/01:30pm - - - - - SSW 32 39 17 21 - - -
22/01:11pm - - - - - SSW 30 43 16 23 - - -
22/01:00pm - - - - - S 19 22 10 12 - - -
22/12:30pm - - - - - N 11 17 6 9 - - -
22/12:00pm - - - - - ENE 22 30 12 16 - - -
22/11:30am - - - - - E 20 30 11 16 - - -
22/11:00am - - - - - ESE 20 32 11 17 - - -
22/10:30am - - - - - SSE 19 28 10 15 - - -
22/10:00am - - - - - S 19 24 10 13 - - -
22/09:30am - - - - - S 24 28 13 15 - - -
22/09:00am - - - - - SSW 24 30 13 16 - - -
22/08:30am - - - - - S 22 28 12 15 - - -
22/08:00am - - - - - S 17 20 9 11 - - -
22/07:30am - - - - - SE 11 13 6 7 - - -
22/07:00am - - - - - ESE 13 15 7 8 - - -
22/06:30am - - - - - ESE 11 19 6 10 - - -
22/06:00am - - - - - S 19 22 10 12 - - -
22/05:30am - - - - - NE 11 15 6 8 - - -
22/05:00am - - - - - NW 26 35 14 19 - - -
22/04:35am - - - - - SW 28 39 15 21 - - -
22/04:30am - - - - - SSE 9 19 5 10 - - -
22/04:00am - - - - - NE 24 32 13 17 - - -
22/03:30am - - - - - NE 28 35 15 19 - - -
22/03:00am - - - - - NE 22 28 12 15 - - -
22/02:30am - - - - - NE 20 26 11 14 - - -
22/02:00am - - - - - NE 20 24 11 13 - - -
22/01:30am - - - - - NE 20 26 11 14 - - -
22/01:00am - - - - - NE 22 26 12 14 - - -
22/12:30am - - - - - ENE 19 24 10 13 - - -
22/12:00am - - - - - ENE 22 26 12 14 - - -
 
Date/Time
CDT
Temp
°C
App
Temp
°C
Dew
Point
Rel
Hum
%
Delta-T
°C
Wind Press
QNH
hPa
Press
MSL
hPa
Rain
since 9 am
mm
Dir
 
Spd
km/h
Gust
km/h
Spd
kts
Gust
kts
21/11:30pm - - - - - E 20 26 11 14 - - -
21/11:00pm - - - - - E 19 26 10 14 - - -
21/10:30pm - - - - - E 19 24 10 13 - - -
21/10:00pm - - - - - E 17 19 9 10 - - -
21/09:30pm - - - - - ENE 15 19 8 10 - - -
21/09:00pm - - - - - NNE 11 11 6 6 - - -
21/08:30pm - - - - - NE 9 9 5 5 - - -
21/08:00pm - - - - - CALM 0 0 0 0 - - -
21/07:30pm - - - - - NW 9 13 5 7 - - -
21/07:00pm - - - - - S 6 15 3 8 - - -
21/06:30pm - - - - - SE 13 15 7 8 - - -
21/06:00pm - - - - - SSE 9 11 5 6 - - -
21/05:30pm - - - - - SW 6 9 3 5 - - -
21/05:00pm - - - - - WNW 9 13 5 7 - - -
21/04:30pm - - - - - SSW 11 13 6 7 - - -
21/04:00pm - - - - - SW 11 15 6 8 - - -
21/03:30pm - - - - - N 11 13 6 7 - - -
21/03:00pm - - - - - N 13 17 7 9 - - -
21/02:30pm - - - - - N 13 17 7 9 - - -
21/02:00pm - - - - - N 13 17 7 9 - - -
21/01:30pm - - - - - N 15 19 8 10 - - -
21/01:00pm - - - - - N 15 19 8 10 - - -
21/12:30pm - - - - - N 13 17 7 9 - - -
21/12:00pm - - - - - N 13 17 7 9 - - -
21/11:30am - - - - - N 15 19 8 10 - - -
21/11:00am - - - - - N 15 19 8 10 - - -
21/10:30am - - - - - N 15 20 8 11 - - -
21/10:00am - - - - - N 15 19 8 10 - - -
21/09:30am - - - - - N 13 15 7 8 - - -
21/09:00am - - - - - N 11 15 6 8 - - -
21/08:30am - - - - - NNE 13 15 7 8 - - -
21/08:00am - - - - - NE 15 17 8 9 - - -
21/07:30am - - - - - ENE 11 13 6 7 - - -
21/07:00am - - - - - ENE 11 13 6 7 - - -
21/06:30am - - - - - ENE 17 20 9 11 - - -
21/06:00am - - - - - E 15 17 8 9 - - -
21/05:30am - - - - - ESE 9 9 5 5 - - -
21/05:00am - - - - - E 15 15 8 8 - - -
21/04:30am - - - - - E 15 15 8 8 - - -
21/04:00am - - - - - E 9 11 5 6 - - -
21/03:30am - - - - - E 6 7 3 4 - - -
21/03:00am - - - - - SSW 15 20 8 11 - - -
21/02:30am - - - - - SSW 17 22 9 12 - - -
21/02:00am - - - - - SSW 19 24 10 13 - - -
21/01:30am - - - - - SSW 20 26 11 14 - - -
21/01:00am - - - - - SSW 26 32 14 17 - - -
21/12:30am - - - - - SSW 26 32 14 17 - - -
21/12:00am - - - - - SSW 26 32 14 17 - - -

Other Formats:

Comma delimited format used in spreadsheet applications
http://www.bom.gov.au/fwo/IDS60801/IDS60801.94666.axf

JavaScript Object Notation format (JSON) in row-major order
http://www.bom.gov.au/fwo/IDS60801/IDS60801.94666.json